createdAt,value
2019-06-27T00:00:09.571Z,57.67
2019-06-27T00:01:13.180Z,57.57
2019-06-27T00:02:17.320Z,57.55
2019-06-27T00:03:20.842Z,57.52
2019-06-27T00:04:24.994Z,57.76
2019-06-27T00:05:28.526Z,57.91
2019-06-27T00:06:32.717Z,57.74
2019-06-27T00:07:36.351Z,57.73
2019-06-27T00:08:40.488Z,57.88
2019-06-27T00:09:43.996Z,57.99
2019-06-27T00:10:48.194Z,58.03
2019-06-27T00:11:51.829Z,57.94
2019-06-27T00:12:55.985Z,57.60
2019-06-27T00:13:59.513Z,57.74
2019-06-27T00:15:03.618Z,57.72
2019-06-27T00:16:07.206Z,57.59
2019-06-27T00:17:12.304Z,57.16
2019-06-27T00:18:15.741Z,56.58
2019-06-27T00:19:19.862Z,56.59
2019-06-27T00:20:23.319Z,56.24
2019-06-27T00:21:27.424Z,56.03
2019-06-27T00:22:30.907Z,55.77
2019-06-27T00:23:34.952Z,55.79
2019-06-27T00:24:38.511Z,55.77
2019-06-27T00:25:42.673Z,55.59
2019-06-27T00:26:56.705Z,55.48
2019-06-27T00:27:51.920Z,55.38
2019-06-27T00:28:55.437Z,55.46
2019-06-27T00:29:59.515Z,55.49
2019-06-27T00:31:03.175Z,55.37
2019-06-27T00:32:07.252Z,55.49
2019-06-27T00:33:10.719Z,55.46
2019-06-27T00:34:14.810Z,55.14
2019-06-27T00:35:18.333Z,54.99
2019-06-27T00:36:22.436Z,54.69
2019-06-27T00:37:25.979Z,54.92
2019-06-27T00:38:30.100Z,55.06
2019-06-27T00:39:33.544Z,55.08
2019-06-27T00:40:37.712Z,55.13
2019-06-27T00:41:41.302Z,55.00
2019-06-27T00:42:45.438Z,54.95
2019-06-27T00:43:48.895Z,55.16
2019-06-27T00:44:53.016Z,55.16
2019-06-27T00:45:56.496Z,54.79
2019-06-27T00:47:00.628Z,55.05
2019-06-27T00:48:04.187Z,55.22
2019-06-27T00:49:08.343Z,55.40
2019-06-27T00:50:12.242Z,55.27
2019-06-27T00:51:16.291Z,55.14
2019-06-27T00:52:19.762Z,55.03
2019-06-27T00:53:23.881Z,54.93
2019-06-27T00:54:27.351Z,54.70
2019-06-27T00:55:31.526Z,54.39
2019-06-27T00:56:34.989Z,54.49
2019-06-27T00:57:39.196Z,54.53
2019-06-27T00:58:42.783Z,54.67
2019-06-27T00:59:47.007Z,54.70
2019-06-27T01:00:50.524Z,54.67
2019-06-27T01:01:54.621Z,54.36
2019-06-27T01:02:58.257Z,54.52
2019-06-27T01:04:02.899Z,54.59
2019-06-27T01:05:07.885Z,54.39
2019-06-27T01:06:12.001Z,54.44
2019-06-27T01:07:15.449Z,54.65
2019-06-27T01:08:19.749Z,54.81
2019-06-27T01:09:23.340Z,54.90
2019-06-27T01:10:27.457Z,54.87
2019-06-27T01:11:31.062Z,54.68
2019-06-27T01:12:54.674Z,54.70
2019-06-27T01:13:58.307Z,54.68
2019-06-27T01:15:02.560Z,54.82
2019-06-27T01:16:06.172Z,54.68
2019-06-27T01:17:10.355Z,54.49
2019-06-27T01:18:13.833Z,54.51
2019-06-27T01:19:18.082Z,54.15
2019-06-27T01:20:21.614Z,53.99
2019-06-27T01:21:25.726Z,54.12
2019-06-27T01:22:29.242Z,54.07
2019-06-27T01:23:33.381Z,54.34
2019-06-27T01:24:36.975Z,54.29
2019-06-27T01:25:41.085Z,54.42
2019-06-27T01:26:44.771Z,54.45
2019-06-27T01:27:48.908Z,54.72
2019-06-27T01:28:52.416Z,54.57
2019-06-27T01:29:56.148Z,54.78
2019-06-27T01:30:59.676Z,54.72
2019-06-27T01:32:03.791Z,54.68
2019-06-27T01:33:07.346Z,55.16
2019-06-27T01:34:11.414Z,55.19
2019-06-27T01:35:15.236Z,54.94
2019-06-27T01:36:19.284Z,54.82
2019-06-27T01:37:22.804Z,54.70
2019-06-27T01:38:26.936Z,54.87
2019-06-27T01:39:30.387Z,54.66
2019-06-27T01:40:34.558Z,54.77
2019-06-27T01:41:38.150Z,54.97
2019-06-27T01:42:42.334Z,55.07
2019-06-27T01:43:45.877Z,54.82
2019-06-27T01:45:08.766Z,54.80
2019-06-27T01:46:12.296Z,54.78
2019-06-27T01:47:16.411Z,55.12
2019-06-27T01:48:19.982Z,55.34
2019-06-27T01:49:24.084Z,55.39
2019-06-27T01:50:27.671Z,55.31
2019-06-27T01:51:31.774Z,55.14
2019-06-27T01:52:35.226Z,55.02
2019-06-27T01:53:39.375Z,55.00
2019-06-27T01:54:42.819Z,54.99
2019-06-27T01:55:46.990Z,54.92
2019-06-27T01:56:50.449Z,54.92
2019-06-27T01:57:54.621Z,54.78
2019-06-27T01:58:58.189Z,54.99
2019-06-27T02:00:02.396Z,54.89
2019-06-27T02:01:05.972Z,54.99
2019-06-27T02:02:10.218Z,55.11
2019-06-27T02:03:13.747Z,55.13
2019-06-27T02:04:17.955Z,55.27
2019-06-27T02:05:21.499Z,55.53
2019-06-27T02:06:25.545Z,55.37
2019-06-27T02:07:29.001Z,55.14
2019-06-27T02:08:33.142Z,55.24
2019-06-27T02:09:36.663Z,55.32
2019-06-27T02:10:40.885Z,55.13
2019-06-27T02:11:44.502Z,54.90
2019-06-27T02:12:48.617Z,54.75
2019-06-27T02:13:52.149Z,54.94
2019-06-27T02:14:56.300Z,55.22
2019-06-27T02:15:59.826Z,55.33
2019-06-27T02:17:04.071Z,55.65
2019-06-27T02:18:07.662Z,55.46
2019-06-27T02:19:11.857Z,55.69
2019-06-27T02:20:16.181Z,55.71
2019-06-27T02:21:20.303Z,55.59
2019-06-27T02:22:23.841Z,55.48
2019-06-27T02:23:27.868Z,55.58
2019-06-27T02:24:31.422Z,55.69
2019-06-27T02:25:35.340Z,55.80
2019-06-27T02:26:38.863Z,56.13
2019-06-27T02:27:43.058Z,55.86
2019-06-27T02:28:46.602Z,55.86
2019-06-27T02:29:50.814Z,55.62
2019-06-27T02:30:54.340Z,55.46
2019-06-27T02:31:58.465Z,55.59
2019-06-27T02:33:01.991Z,55.57
2019-06-27T02:34:07.082Z,55.80
2019-06-27T02:35:11.234Z,55.83
2019-06-27T02:36:15.289Z,55.93
2019-06-27T02:37:18.905Z,55.65
2019-06-27T02:38:22.923Z,55.63
2019-06-27T02:39:26.487Z,55.60
2019-06-27T02:40:30.516Z,55.13
2019-06-27T02:41:34.347Z,54.32
2019-06-27T02:42:38.547Z,54.57
2019-06-27T02:43:42.006Z,54.83
2019-06-27T02:44:46.086Z,55.20
2019-06-27T02:45:49.663Z,55.06
2019-06-27T02:46:53.791Z,55.34
2019-06-27T02:47:57.403Z,55.18
2019-06-27T02:49:01.471Z,54.51
2019-06-27T02:50:07.114Z,53.78
2019-06-27T02:51:11.803Z,53.51
2019-06-27T02:52:15.369Z,53.36
2019-06-27T02:53:19.411Z,53.20
2019-06-27T02:54:22.963Z,53.05
2019-06-27T02:55:27.004Z,53.13
2019-06-27T02:56:30.443Z,53.02
2019-06-27T02:57:34.623Z,52.95
2019-06-27T02:58:38.111Z,52.97
2019-06-27T02:59:42.379Z,53.10
2019-06-27T03:00:45.946Z,53.30
2019-06-27T03:01:50.107Z,53.29
2019-06-27T03:02:53.911Z,53.32
2019-06-27T03:03:58.013Z,53.42
2019-06-27T03:05:01.668Z,53.73
2019-06-27T03:06:05.872Z,54.06
2019-06-27T03:07:09.674Z,54.17
2019-06-27T03:08:13.861Z,54.37
2019-06-27T03:09:17.414Z,54.65
2019-06-27T03:10:21.708Z,54.86
2019-06-27T03:11:25.230Z,55.03
2019-06-27T03:12:29.609Z,55.16
2019-06-27T03:13:33.069Z,55.50
2019-06-27T03:14:37.208Z,55.46
2019-06-27T03:15:40.671Z,55.51
2019-06-27T03:16:44.695Z,55.98
2019-06-27T03:17:48.234Z,56.13
2019-06-27T03:18:52.349Z,56.86
2019-06-27T03:19:56.046Z,57.32
2019-06-27T03:21:00.120Z,57.46
2019-06-27T03:22:05.785Z,57.70
2019-06-27T03:23:09.646Z,58.21
2019-06-27T03:24:13.172Z,58.43
2019-06-27T03:25:17.391Z,58.72
2019-06-27T03:26:20.856Z,59.06
2019-06-27T03:27:24.995Z,59.21
2019-06-27T03:28:50.106Z,59.22
2019-06-27T03:29:34.209Z,59.41
2019-06-27T03:30:37.749Z,59.24
2019-06-27T03:31:41.875Z,59.45
2019-06-27T03:32:45.336Z,59.94
2019-06-27T03:33:49.449Z,59.89
2019-06-27T03:34:52.979Z,60.05
2019-06-27T03:35:57.088Z,60.17
2019-06-27T03:37:00.607Z,60.41
2019-06-27T03:38:04.811Z,60.67
2019-06-27T03:39:08.421Z,60.85
2019-06-27T03:40:12.698Z,60.80
2019-06-27T03:41:16.157Z,61.08
2019-06-27T03:42:20.263Z,61.28
2019-06-27T03:43:23.827Z,61.43
2019-06-27T03:44:28.048Z,61.42
2019-06-27T03:45:31.958Z,61.41
2019-06-27T03:46:36.111Z,61.29
2019-06-27T03:47:39.678Z,61.38
2019-06-27T03:48:43.743Z,61.72
2019-06-27T03:49:47.269Z,61.59
2019-06-27T03:50:55.890Z,61.53
2019-06-27T03:51:56.719Z,61.77
2019-06-27T03:53:00.757Z,61.87
2019-06-27T03:54:04.298Z,61.83
2019-06-27T03:55:11.376Z,61.72
2019-06-27T03:56:14.907Z,61.85
2019-06-27T03:57:19.013Z,61.93
2019-06-27T03:58:22.489Z,61.76
2019-06-27T03:59:26.682Z,61.85
2019-06-27T04:00:34.066Z,61.97
2019-06-27T04:01:38.190Z,61.83
2019-06-27T04:02:41.781Z,61.97
2019-06-27T04:03:45.917Z,61.95
2019-06-27T04:04:49.505Z,61.65
2019-06-27T04:05:53.714Z,61.49
2019-06-27T04:06:57.373Z,61.29
2019-06-27T04:08:01.411Z,61.34
2019-06-27T04:09:05.876Z,61.85
2019-06-27T04:10:09.786Z,61.68
2019-06-27T04:11:13.402Z,61.61
2019-06-27T04:12:17.572Z,61.56
2019-06-27T04:13:22.252Z,61.59
2019-06-27T04:14:26.293Z,61.42
2019-06-27T04:15:29.840Z,61.52
2019-06-27T04:16:34.021Z,61.26
2019-06-27T04:17:37.657Z,61.11
2019-06-27T04:18:41.836Z,61.14
2019-06-27T04:19:45.395Z,61.23
2019-06-27T04:20:49.546Z,61.44
2019-06-27T04:21:53.110Z,61.26
2019-06-27T04:22:57.341Z,61.28
2019-06-27T04:24:00.936Z,61.53
2019-06-27T04:25:06.519Z,61.60
2019-06-27T04:26:10.095Z,61.64
2019-06-27T04:27:14.277Z,61.15
2019-06-27T04:28:17.884Z,61.10
2019-06-27T04:29:33.580Z,61.16
2019-06-27T04:30:27.364Z,60.96
2019-06-27T04:31:31.576Z,60.96
2019-06-27T04:32:35.210Z,60.79
2019-06-27T04:33:39.400Z,60.75
2019-06-27T04:34:42.920Z,60.42
2019-06-27T04:35:47.063Z,60.09
2019-06-27T04:36:50.532Z,59.68
2019-06-27T04:37:54.727Z,59.72
2019-06-27T04:38:58.188Z,59.68
2019-06-27T04:40:02.495Z,59.35
2019-06-27T04:41:06.028Z,59.14
2019-06-27T04:42:10.147Z,58.68
2019-06-27T04:43:13.735Z,58.36
2019-06-27T04:44:17.923Z,58.18
2019-06-27T04:45:21.442Z,58.55
2019-06-27T04:46:25.579Z,59.02
2019-06-27T04:47:29.110Z,59.20
2019-06-27T04:48:33.154Z,59.58
2019-06-27T04:49:36.620Z,59.32
2019-06-27T04:50:40.742Z,59.24
2019-06-27T04:51:44.199Z,59.12
2019-06-27T04:52:48.491Z,59.11
2019-06-27T04:53:51.939Z,58.94
2019-06-27T04:54:56.105Z,58.73
2019-06-27T04:55:59.635Z,58.75
2019-06-27T04:57:03.758Z,58.52
2019-06-27T04:58:07.358Z,58.43
2019-06-27T04:59:11.410Z,58.42
2019-06-27T05:00:17.907Z,58.02
2019-06-27T05:01:21.966Z,58.31
2019-06-27T05:02:30.229Z,58.67
2019-06-27T05:03:31.428Z,58.69
2019-06-27T05:04:35.548Z,58.40
2019-06-27T05:05:39.677Z,58.18
2019-06-27T05:06:43.146Z,58.46
2019-06-27T05:07:47.221Z,58.77
2019-06-27T05:08:50.750Z,58.83
2019-06-27T05:09:54.883Z,57.84
2019-06-27T05:10:58.443Z,57.34
2019-06-27T05:12:02.488Z,57.83
2019-06-27T05:13:06.099Z,57.67
2019-06-27T05:14:09.878Z,57.55
2019-06-27T05:15:13.493Z,57.73
2019-06-27T05:16:17.572Z,57.75
2019-06-27T05:17:21.030Z,57.32
2019-06-27T05:18:25.151Z,56.74
2019-06-27T05:19:28.633Z,56.42
2019-06-27T05:20:32.818Z,56.40
2019-06-27T05:21:36.373Z,56.45
2019-06-27T05:22:40.595Z,55.34
2019-06-27T05:23:44.122Z,55.16
2019-06-27T05:24:48.186Z,54.79
2019-06-27T05:25:51.648Z,54.94
2019-06-27T05:26:55.780Z,54.29
2019-06-27T05:27:59.258Z,54.64
2019-06-27T05:29:03.339Z,54.67
2019-06-27T05:30:09.808Z,54.18
2019-06-27T05:31:12.838Z,54.29
2019-06-27T05:32:16.301Z,53.52
2019-06-27T05:33:20.366Z,53.79
2019-06-27T05:34:23.969Z,54.23
2019-06-27T05:35:28.053Z,54.57
2019-06-27T05:36:31.526Z,55.14
2019-06-27T05:37:35.576Z,55.21
2019-06-27T05:38:39.185Z,55.31
2019-06-27T05:39:43.205Z,55.34
2019-06-27T05:40:46.806Z,55.43
2019-06-27T05:41:50.931Z,55.56
2019-06-27T05:42:54.394Z,55.32
2019-06-27T05:43:59.504Z,55.03
2019-06-27T05:45:03.298Z,54.95
2019-06-27T05:46:07.411Z,54.85
2019-06-27T05:47:10.883Z,54.74
2019-06-27T05:48:15.022Z,54.67
2019-06-27T05:49:18.468Z,54.89
2019-06-27T05:50:22.668Z,54.74
2019-06-27T05:51:26.140Z,54.91
2019-06-27T05:52:29.979Z,54.42
2019-06-27T05:53:33.476Z,54.57
2019-06-27T05:54:37.627Z,54.95
2019-06-27T05:55:41.144Z,55.09
2019-06-27T05:56:45.027Z,54.91
2019-06-27T05:57:48.605Z,54.75
2019-06-27T05:58:52.604Z,54.72
2019-06-27T05:59:56.328Z,54.71
2019-06-27T06:01:00.499Z,54.59
2019-06-27T06:02:04.146Z,54.50
2019-06-27T06:03:08.262Z,54.79
2019-06-27T06:04:11.748Z,55.08
2019-06-27T06:05:15.998Z,55.35
2019-06-27T06:06:19.590Z,55.42
2019-06-27T06:07:23.746Z,55.21
2019-06-27T06:08:27.188Z,54.83
2019-06-27T06:09:32.996Z,54.49
2019-06-27T06:10:36.640Z,54.59
2019-06-27T06:11:40.786Z,54.68
2019-06-27T06:12:44.310Z,54.53
2019-06-27T06:13:48.473Z,54.94
2019-06-27T06:14:52.221Z,55.03
2019-06-27T06:15:56.421Z,55.23
2019-06-27T06:17:00.044Z,55.08
2019-06-27T06:18:04.229Z,55.10
2019-06-27T06:19:07.692Z,54.76
2019-06-27T06:20:12.038Z,54.82
2019-06-27T06:21:15.567Z,54.70
2019-06-27T06:22:19.743Z,54.07
2019-06-27T06:23:23.263Z,53.92
2019-06-27T06:24:27.388Z,53.69
2019-06-27T06:25:30.836Z,53.23
2019-06-27T06:26:34.943Z,52.48
2019-06-27T06:27:38.502Z,52.30
2019-06-27T06:28:42.882Z,52.15
2019-06-27T06:29:46.415Z,52.08
2019-06-27T06:30:50.793Z,52.39
2019-06-27T06:31:54.360Z,52.76
2019-06-27T06:32:58.494Z,52.99
2019-06-27T06:34:02.046Z,53.16
2019-06-27T06:35:07.865Z,52.88
2019-06-27T06:36:11.314Z,52.54
2019-06-27T06:37:15.496Z,52.38
2019-06-27T06:38:19.097Z,51.57
2019-06-27T06:39:23.346Z,51.27
2019-06-27T06:40:27.004Z,50.97
2019-06-27T06:41:31.141Z,50.84
2019-06-27T06:42:34.671Z,50.79
2019-06-27T06:43:38.786Z,50.75
2019-06-27T06:44:42.379Z,50.62
2019-06-27T06:45:46.789Z,50.79
2019-06-27T06:46:50.278Z,50.97
2019-06-27T06:47:54.487Z,50.89
2019-06-27T06:48:58.032Z,50.87
2019-06-27T06:50:02.132Z,50.78
2019-06-27T06:51:05.637Z,51.08
2019-06-27T06:52:09.831Z,51.16
2019-06-27T06:53:13.296Z,51.16
2019-06-27T06:54:17.396Z,50.89
2019-06-27T06:55:20.909Z,50.72
2019-06-27T06:56:25.076Z,50.60
2019-06-27T06:57:28.639Z,50.77
2019-06-27T06:58:32.748Z,50.87
2019-06-27T06:59:36.258Z,50.73
2019-06-27T07:00:40.457Z,50.73
2019-06-27T07:01:45.761Z,50.77
2019-06-27T07:02:49.751Z,50.75
2019-06-27T07:03:53.315Z,50.35
2019-06-27T07:04:57.421Z,50.29
2019-06-27T07:06:00.897Z,50.29
2019-06-27T07:07:05.016Z,50.29
2019-06-27T07:08:08.554Z,50.19
2019-06-27T07:09:12.648Z,50.28
2019-06-27T07:10:16.794Z,50.43
2019-06-27T07:11:20.872Z,50.64
2019-06-27T07:12:24.460Z,50.85
2019-06-27T07:13:28.511Z,51.02
2019-06-27T07:14:32.035Z,51.15
2019-06-27T07:15:36.138Z,51.45
2019-06-27T07:16:39.600Z,51.45
2019-06-27T07:17:43.757Z,51.58
2019-06-27T07:18:47.272Z,51.58
2019-06-27T07:19:51.366Z,51.41
2019-06-27T07:20:54.879Z,50.98
2019-06-27T07:21:58.990Z,50.91
2019-06-27T07:23:02.719Z,50.86
2019-06-27T07:24:06.953Z,50.66
2019-06-27T07:25:13.817Z,50.51
2019-06-27T07:26:17.863Z,50.62
2019-06-27T07:27:21.498Z,49.50
2019-06-27T07:28:25.634Z,49.50
2019-06-27T07:29:29.090Z,49.93
2019-06-27T07:30:33.197Z,50.18
2019-06-27T07:31:36.772Z,49.99
2019-06-27T07:32:40.904Z,49.78
2019-06-27T07:33:44.489Z,49.78
2019-06-27T07:34:48.566Z,50.07
2019-06-27T07:35:52.088Z,50.37
2019-06-27T07:36:56.123Z,50.37
2019-06-27T07:37:59.616Z,50.37
2019-06-27T07:39:05.279Z,50.22
2019-06-27T07:40:09.213Z,50.22
2019-06-27T07:41:13.269Z,50.40
2019-06-27T07:42:16.873Z,50.40
2019-06-27T07:43:21.013Z,50.30
2019-06-27T07:44:24.522Z,50.30
2019-06-27T07:45:28.586Z,50.54
2019-06-27T07:46:32.134Z,50.54
2019-06-27T07:47:36.225Z,50.64
2019-06-27T07:48:39.795Z,50.64
2019-06-27T07:49:43.926Z,50.30
2019-06-27T07:50:47.523Z,49.95
2019-06-27T07:51:51.307Z,49.34
2019-06-27T07:52:54.898Z,48.61
2019-06-27T07:53:59.039Z,48.61
2019-06-27T07:55:02.560Z,48.89
2019-06-27T07:56:06.599Z,48.94
2019-06-27T07:57:10.136Z,48.91
2019-06-27T07:58:14.181Z,48.91
2019-06-27T07:59:17.722Z,49.28
2019-06-27T08:00:22.109Z,49.39
2019-06-27T08:01:35.173Z,49.39
2019-06-27T08:02:31.458Z,49.11
2019-06-27T08:03:34.935Z,48.84
2019-06-27T08:04:39.030Z,49.07
2019-06-27T08:05:42.551Z,48.71
2019-06-27T08:06:46.721Z,48.71
2019-06-27T08:07:50.321Z,48.62
2019-06-27T08:08:54.477Z,48.65
2019-06-27T08:09:57.925Z,48.72
2019-06-27T08:11:01.998Z,48.66
2019-06-27T08:12:05.645Z,48.66
2019-06-27T08:13:09.764Z,48.86
2019-06-27T08:14:14.795Z,48.86
2019-06-27T08:15:18.967Z,48.69
2019-06-27T08:16:22.454Z,48.96
2019-06-27T08:17:26.592Z,49.12
2019-06-27T08:18:30.083Z,49.12
2019-06-27T08:19:34.184Z,48.61
2019-06-27T08:20:37.661Z,48.74
2019-06-27T08:21:41.715Z,48.56
2019-06-27T08:22:45.191Z,48.79
2019-06-27T08:23:49.255Z,48.83
2019-06-27T08:24:52.853Z,48.83
2019-06-27T08:25:56.908Z,48.31
2019-06-27T08:27:00.547Z,48.31
2019-06-27T08:28:04.691Z,48.01
2019-06-27T08:29:08.219Z,47.78
2019-06-27T08:30:12.603Z,47.37
2019-06-27T08:31:16.134Z,47.37
2019-06-27T08:32:20.255Z,47.64
2019-06-27T08:33:23.773Z,47.91
2019-06-27T08:34:27.915Z,48.23
2019-06-27T08:35:33.663Z,47.68
2019-06-27T08:36:37.349Z,47.68
2019-06-27T08:37:40.797Z,47.77
2019-06-27T08:38:44.832Z,48.06
2019-06-27T08:39:48.482Z,48.21
2019-06-27T08:40:52.648Z,48.53
2019-06-27T08:41:56.098Z,48.75
2019-06-27T08:43:00.143Z,48.81
2019-06-27T08:44:04.690Z,48.47
2019-06-27T08:45:09.184Z,48.32
2019-06-27T08:46:12.684Z,48.53
2019-06-27T08:47:16.740Z,48.55
2019-06-27T08:48:20.257Z,48.52
2019-06-27T08:49:24.368Z,48.64
2019-06-27T08:50:28.016Z,48.23
2019-06-27T08:51:32.116Z,48.46
2019-06-27T08:52:35.710Z,48.55
2019-06-27T08:53:39.828Z,48.43
2019-06-27T08:54:43.307Z,48.29
2019-06-27T08:55:47.421Z,48.72
2019-06-27T08:56:51.017Z,48.72
2019-06-27T08:57:55.218Z,48.20
2019-06-27T08:58:58.807Z,48.20
2019-06-27T09:00:03.061Z,48.39
2019-06-27T09:01:06.597Z,48.33
2019-06-27T09:02:10.703Z,48.58
2019-06-27T09:03:14.239Z,48.54
2019-06-27T09:04:18.358Z,48.53
2019-06-27T09:05:21.883Z,48.71
2019-06-27T09:06:25.982Z,48.44
2019-06-27T09:07:29.426Z,47.81
2019-06-27T09:08:33.533Z,47.67
2019-06-27T09:09:37.070Z,47.45
2019-06-27T09:10:41.334Z,47.26
2019-06-27T09:11:44.831Z,47.39
2019-06-27T09:12:49.019Z,47.61
2019-06-27T09:13:52.620Z,47.86
2019-06-27T09:14:56.825Z,48.10
2019-06-27T09:16:00.352Z,48.03
2019-06-27T09:17:04.539Z,47.86
2019-06-27T09:18:08.146Z,47.89
2019-06-27T09:19:12.208Z,47.13
2019-06-27T09:20:16.043Z,47.10
2019-06-27T09:21:20.147Z,46.41
2019-06-27T09:22:23.758Z,45.83
2019-06-27T09:23:27.856Z,45.81
2019-06-27T09:24:31.403Z,45.68
2019-06-27T09:25:35.523Z,45.40
2019-06-27T09:26:39.025Z,45.49
2019-06-27T09:27:43.197Z,45.20
2019-06-27T09:28:46.844Z,45.10
2019-06-27T09:29:51.008Z,45.32
2019-06-27T09:30:54.611Z,45.33
2019-06-27T09:31:58.705Z,45.51
2019-06-27T09:33:02.247Z,45.92
2019-06-27T09:34:06.351Z,45.81
2019-06-27T09:35:10.371Z,46.19
2019-06-27T09:36:14.498Z,46.26
2019-06-27T09:37:18.056Z,46.38
2019-06-27T09:38:22.158Z,46.19
2019-06-27T09:39:27.088Z,46.27
2019-06-27T09:40:31.412Z,46.13
2019-06-27T09:41:34.991Z,46.13
2019-06-27T09:42:39.160Z,46.16
2019-06-27T09:43:42.828Z,46.37
2019-06-27T09:44:47.639Z,46.38
2019-06-27T09:45:51.227Z,46.37
2019-06-27T09:46:55.435Z,46.71
2019-06-27T09:47:58.964Z,46.85
2019-06-27T09:49:03.190Z,46.79
2019-06-27T09:50:08.269Z,47.68
2019-06-27T09:51:12.461Z,47.97
2019-06-27T09:52:16.102Z,47.29
2019-06-27T09:53:20.323Z,47.43
2019-06-27T09:54:23.910Z,47.20
2019-06-27T09:55:28.050Z,47.15
2019-06-27T09:56:31.494Z,47.30
2019-06-27T09:57:35.663Z,47.66
2019-06-27T09:58:39.167Z,46.96
2019-06-27T09:59:43.235Z,47.08
2019-06-27T10:00:46.757Z,47.01
2019-06-27T10:01:51.005Z,46.01
2019-06-27T10:02:54.530Z,44.99
2019-06-27T10:03:58.586Z,44.67
2019-06-27T10:05:02.168Z,44.90
2019-06-27T10:06:06.361Z,44.94
2019-06-27T10:07:15.052Z,44.66
2019-06-27T10:08:19.205Z,44.52
2019-06-27T10:09:22.811Z,44.05
2019-06-27T10:10:26.937Z,44.39
2019-06-27T10:11:30.459Z,44.54
2019-06-27T10:12:42.319Z,44.61
2019-06-27T10:13:40.554Z,44.61
2019-06-27T10:14:44.632Z,44.88
2019-06-27T10:15:48.177Z,45.16
2019-06-27T10:16:52.272Z,45.19
2019-06-27T10:17:55.829Z,45.30
2019-06-27T10:18:59.901Z,45.14
2019-06-27T10:20:04.697Z,45.15
2019-06-27T10:21:08.760Z,45.43
2019-06-27T10:22:12.283Z,45.73
2019-06-27T10:23:16.317Z,46.40
2019-06-27T10:24:19.770Z,46.13
2019-06-27T10:25:23.828Z,45.55
2019-06-27T10:26:27.355Z,45.32
2019-06-27T10:27:31.449Z,45.22
2019-06-27T10:28:34.905Z,44.63
2019-06-27T10:29:39.016Z,44.88
2019-06-27T10:30:42.472Z,45.09
2019-06-27T10:31:46.584Z,45.36
2019-06-27T10:32:58.935Z,44.43
2019-06-27T10:33:55.998Z,43.99
2019-06-27T10:34:59.796Z,44.10
2019-06-27T10:36:03.972Z,44.21
2019-06-27T10:37:07.487Z,44.02
2019-06-27T10:38:11.626Z,43.87
2019-06-27T10:39:15.168Z,43.72
2019-06-27T10:40:19.639Z,43.55
2019-06-27T10:41:23.151Z,43.38
2019-06-27T10:42:27.174Z,43.78
2019-06-27T10:43:30.856Z,44.20
2019-06-27T10:44:35.010Z,43.99
2019-06-27T10:45:38.486Z,43.77
2019-06-27T10:46:42.660Z,44.19
2019-06-27T10:47:46.147Z,44.90
2019-06-27T10:48:50.184Z,45.82
2019-06-27T10:49:53.710Z,45.57
2019-06-27T10:50:57.653Z,45.81
2019-06-27T10:52:01.358Z,45.96
2019-06-27T10:53:05.610Z,46.23
2019-06-27T10:54:09.134Z,46.04
2019-06-27T10:55:13.533Z,46.27
2019-06-27T10:56:16.975Z,47.36
2019-06-27T10:57:21.238Z,46.90
2019-06-27T10:58:24.735Z,46.61
2019-06-27T10:59:28.758Z,46.94
2019-06-27T11:00:32.420Z,47.30
2019-06-27T11:01:36.519Z,46.97
2019-06-27T11:02:40.054Z,46.32
2019-06-27T11:03:44.472Z,45.68
2019-06-27T11:04:47.880Z,45.20
2019-06-27T11:05:51.949Z,44.87
2019-06-27T11:06:55.432Z,44.64
2019-06-27T11:07:59.324Z,44.51
2019-06-27T11:09:03.000Z,44.11
2019-06-27T11:10:09.277Z,43.94
2019-06-27T11:11:12.631Z,43.63
2019-06-27T11:12:16.742Z,43.67
2019-06-27T11:13:20.485Z,43.76
2019-06-27T11:14:24.590Z,43.89
2019-06-27T11:15:28.054Z,43.89
2019-06-27T11:16:32.132Z,44.22
2019-06-27T11:17:35.692Z,45.04
2019-06-27T11:18:39.818Z,45.03
2019-06-27T11:19:52.331Z,45.11
2019-06-27T11:20:49.123Z,44.63
2019-06-27T11:21:52.803Z,44.34
2019-06-27T11:22:56.891Z,44.49
2019-06-27T11:24:00.475Z,44.52
2019-06-27T11:25:06.233Z,45.23
2019-06-27T11:26:09.748Z,45.80
2019-06-27T11:27:13.977Z,45.67
2019-06-27T11:28:17.435Z,45.46
2019-06-27T11:29:21.602Z,44.89
2019-06-27T11:30:25.197Z,45.69
2019-06-27T11:31:29.311Z,46.00
2019-06-27T11:32:32.806Z,45.73
2019-06-27T11:33:36.813Z,45.66
2019-06-27T11:34:40.341Z,45.59
2019-06-27T11:35:44.372Z,45.27
2019-06-27T11:36:47.859Z,45.79
2019-06-27T11:37:51.959Z,45.39
2019-06-27T11:38:55.481Z,45.31
2019-06-27T11:39:59.517Z,45.56
2019-06-27T11:41:03.039Z,44.48
2019-06-27T11:42:07.278Z,45.18
2019-06-27T11:43:10.887Z,44.34
2019-06-27T11:44:15.069Z,44.06
2019-06-27T11:45:18.657Z,43.46
2019-06-27T11:46:22.798Z,42.60
2019-06-27T11:47:26.279Z,42.59
2019-06-27T11:48:30.553Z,42.78
2019-06-27T11:49:34.149Z,43.79
2019-06-27T11:50:38.200Z,43.09
2019-06-27T11:51:41.787Z,42.58
2019-06-27T11:52:47.183Z,42.13
2019-06-27T11:53:51.113Z,42.02
2019-06-27T11:54:55.261Z,42.21
2019-06-27T11:55:58.790Z,41.93
2019-06-27T11:57:02.903Z,41.98
2019-06-27T11:58:06.496Z,41.30
2019-06-27T11:59:10.565Z,41.35
2019-06-27T12:00:14.342Z,41.48
2019-06-27T12:01:18.447Z,41.29
2019-06-27T12:02:21.965Z,41.18
2019-06-27T12:03:26.090Z,41.21
2019-06-27T12:04:29.657Z,41.27
2019-06-27T12:05:33.818Z,41.32
2019-06-27T12:06:37.335Z,40.98
2019-06-27T12:07:41.439Z,41.99
2019-06-27T12:08:45.044Z,41.36
2019-06-27T12:09:49.151Z,42.17
2019-06-27T12:10:52.747Z,40.83
2019-06-27T12:11:56.846Z,40.41
2019-06-27T12:13:00.460Z,40.35
2019-06-27T12:14:04.531Z,39.98
2019-06-27T12:15:10.276Z,39.82
2019-06-27T12:16:14.313Z,40.01
2019-06-27T12:17:17.814Z,40.07
2019-06-27T12:18:21.948Z,40.16
2019-06-27T12:19:25.428Z,40.06
2019-06-27T12:20:29.527Z,39.70
2019-06-27T12:21:33.050Z,39.34
2019-06-27T12:22:37.167Z,40.08
2019-06-27T12:23:40.690Z,40.46
2019-06-27T12:24:44.814Z,40.63
2019-06-27T12:25:48.310Z,40.10
2019-06-27T12:26:52.142Z,39.80
2019-06-27T12:27:55.659Z,39.27
2019-06-27T12:28:59.764Z,39.47
2019-06-27T12:30:03.865Z,39.35
2019-06-27T12:31:19.925Z,39.76
2019-06-27T12:32:13.413Z,40.42
2019-06-27T12:33:17.510Z,40.35
2019-06-27T12:34:20.962Z,40.60
2019-06-27T12:35:25.070Z,39.78
2019-06-27T12:36:28.726Z,38.80
2019-06-27T12:37:32.720Z,38.36
2019-06-27T12:38:36.235Z,38.47
2019-06-27T12:39:40.268Z,38.75
2019-06-27T12:40:43.859Z,39.30
2019-06-27T12:41:47.944Z,38.29
2019-06-27T12:42:51.381Z,37.79
2019-06-27T12:43:55.558Z,37.64
2019-06-27T12:44:59.151Z,38.70
2019-06-27T12:46:03.817Z,38.76
2019-06-27T12:47:07.382Z,38.56
2019-06-27T12:48:11.504Z,38.21
2019-06-27T12:49:15.932Z,38.42
2019-06-27T12:50:20.561Z,37.99
2019-06-27T12:51:27.109Z,36.91
2019-06-27T12:52:31.466Z,36.83
2019-06-27T12:53:34.978Z,36.01
2019-06-27T12:54:39.012Z,35.13
2019-06-27T12:55:42.449Z,34.99
2019-06-27T12:56:46.491Z,35.60
2019-06-27T12:57:50.130Z,34.30
2019-06-27T12:58:54.187Z,34.71
2019-06-27T12:59:58.649Z,34.86
2019-06-27T13:01:02.780Z,34.47
2019-06-27T13:02:06.336Z,34.96
2019-06-27T13:03:10.510Z,35.08
2019-06-27T13:04:23.395Z,35.86
2019-06-27T13:05:20.766Z,36.61
2019-06-27T13:06:24.316Z,36.46
2019-06-27T13:07:28.639Z,36.18
2019-06-27T13:08:32.147Z,36.10
2019-06-27T13:09:36.190Z,36.06
2019-06-27T13:10:39.895Z,34.99
2019-06-27T13:11:44.605Z,33.92
2019-06-27T13:12:49.420Z,33.80
2019-06-27T13:13:53.548Z,33.51
2019-06-27T13:14:57.171Z,34.20
2019-06-27T13:16:01.201Z,33.44
2019-06-27T13:17:05.511Z,33.94
2019-06-27T13:18:09.709Z,34.19
2019-06-27T13:19:13.229Z,33.94
2019-06-27T13:20:17.609Z,33.81
2019-06-27T13:21:21.198Z,33.31
2019-06-27T13:22:25.372Z,32.41
2019-06-27T13:23:28.917Z,32.19
2019-06-27T13:24:32.950Z,31.78
2019-06-27T13:25:36.556Z,31.13
2019-06-27T13:26:40.820Z,30.56
2019-06-27T13:27:44.503Z,29.82
2019-06-27T13:28:48.681Z,28.69
2019-06-27T13:29:52.200Z,27.50
2019-06-27T13:30:56.317Z,26.20
2019-06-27T13:31:59.773Z,26.40
2019-06-27T13:33:03.930Z,25.71
2019-06-27T13:34:07.557Z,24.34
2019-06-27T13:35:12.070Z,23.14
2019-06-27T13:36:15.514Z,22.30
2019-06-27T13:37:19.655Z,21.18
2019-06-27T13:38:23.296Z,20.59
2019-06-27T13:39:27.525Z,19.79
2019-06-27T13:40:31.046Z,19.66
2019-06-27T13:41:35.227Z,19.20
2019-06-27T13:42:38.969Z,22.38
2019-06-27T13:43:44.882Z,24.35